Time;durP1;ratioP1;P1;durP2;ratioP2;P2;SDS_P1;SDS_P2;PMS_P1;PMS_P2;Temp;Humidity;BMP_temperature;BMP_pressure;BME280_temperature;BME280_humidity;BME280_pressure;Samples;Min_cycle;Max_cycle;Signal;HPM_P1;HPM_P2
2022/03/15 00:00:24;;;;;;;6.80;5.15;;;;;;;;;;5039896;28;20029;-74
2022/03/15 00:02:51;;;;;;;7.53;5.47;;;;;;;;;;5044344;28;20083;-75
2022/03/15 00:05:18;;;;;;;7.15;5.60;;;;;;;;;;5041149;28;20031;-76
2022/03/15 00:07:44;;;;;;;7.78;5.40;;;;;;;;;;5044061;28;20040;-75
2022/03/15 00:10:12;;;;;;;7.88;5.65;;;;;;;;;;5041692;28;20041;-76
2022/03/15 00:12:39;;;;;;;6.80;5.35;;;;;;;;;;5044529;28;20179;-76
2022/03/15 00:15:07;;;;;;;7.13;5.80;;;;;;;;;;5042843;28;20033;-75
2022/03/15 00:17:34;;;;;;;7.78;5.90;;;;;;;;;;5044305;28;20025;-77
2022/03/15 00:20:00;;;;;;;7.25;5.60;;;;;;;;;;5043641;28;20123;-76
2022/03/15 00:22:26;;;;;;;8.02;5.55;;;;;;;;;;5044453;28;20036;-75
2022/03/15 00:24:52;;;;;;;7.43;5.55;;;;;;;;;;5042507;28;20021;-75
2022/03/15 00:27:20;;;;;;;6.78;5.95;;;;;;;;;;5044144;28;20493;-74
2022/03/15 00:29:47;;;;;;;9.15;6.00;;;;;;;;;;5033119;28;20027;-76
2022/03/15 00:32:17;;;;;;;7.55;5.82;;;;;;;;;;5046159;28;20486;-76
2022/03/15 00:34:43;;;;;;;8.88;5.70;;;;;;;;;;5044589;28;20082;-76
2022/03/15 00:37:09;;;;;;;8.25;5.80;;;;;;;;;;5045075;28;20040;-76
2022/03/15 00:39:36;;;;;;;7.47;5.57;;;;;;;;;;5046084;28;20116;-75
2022/03/15 00:42:02;;;;;;;6.47;5.30;;;;;;;;;;5044348;28;20025;-75
2022/03/15 00:44:28;;;;;;;6.82;5.10;;;;;;;;;;5044220;28;20025;-77
2022/03/15 00:46:54;;;;;;;6.88;5.70;;;;;;;;;;5045830;28;20027;-76
2022/03/15 00:49:20;;;;;;;6.50;5.20;;;;;;;;;;5044537;28;20029;-77
2022/03/15 00:51:46;;;;;;;7.63;5.40;;;;;;;;;;5044735;28;20167;-75
2022/03/15 00:54:12;;;;;;;8.93;4.65;;;;;;;;;;5045856;28;20036;-74
2022/03/15 00:56:39;;;;;;;7.10;4.95;;;;;;;;;;5045934;28;20025;-76
2022/03/15 00:59:05;;;;;;;5.65;4.95;;;;;;;;;;5044258;28;20017;-75
2022/03/15 01:01:31;;;;;;;6.05;4.70;;;;;;;;;;5044976;28;20432;-75
2022/03/15 01:03:58;;;;;;;7.68;5.03;;;;;;;;;;5045459;28;20446;-75
2022/03/15 01:06:24;;;;;;;6.28;4.90;;;;;;;;;;5043836;28;20498;-77
2022/03/15 01:08:50;;;;;;;8.07;5.07;;;;;;;;;;5045855;28;20032;-78
2022/03/15 01:11:16;;;;;;;8.13;5.30;;;;;;;;;;5045825;28;20520;-75
2022/03/15 01:13:42;;;;;;;10.90;5.72;;;;;;;;;;5045416;28;20091;-74
2022/03/15 01:16:09;;;;;;;5.53;5.00;;;;;;;;;;5045503;28;20029;-74
2022/03/15 01:18:35;;;;;;;6.80;5.07;;;;;;;;;;5045244;28;20021;-73
2022/03/15 01:21:02;;;;;;;7.30;5.07;;;;;;;;;;5044309;28;20740;-73
2022/03/15 01:23:28;;;;;;;5.95;4.82;;;;;;;;;;5046264;28;20029;-75
2022/03/15 01:25:55;;;;;;;7.47;4.78;;;;;;;;;;5044790;28;20040;-74
2022/03/15 01:28:22;;;;;;;6.35;4.72;;;;;;;;;;5044974;28;20027;-75
2022/03/15 01:30:48;;;;;;;6.25;4.72;;;;;;;;;;5026898;28;20033;-74
2022/03/15 01:33:14;;;;;;;5.97;4.82;;;;;;;;;;5026083;28;20060;-73
2022/03/15 01:35:40;;;;;;;7.15;4.90;;;;;;;;;;5030094;28;20102;-76
2022/03/15 01:38:06;;;;;;;7.80;5.15;;;;;;;;;;5044652;28;20029;-74
2022/03/15 01:40:32;;;;;;;5.95;4.93;;;;;;;;;;5042965;28;20401;-74
2022/03/15 01:42:59;;;;;;;5.82;4.85;;;;;;;;;;5046058;28;20488;-74
2022/03/15 01:45:35;;;;;;;4.95;4.43;;;;;;;;;;5045781;28;20044;-73
2022/03/15 01:48:03;;;;;;;5.95;4.95;;;;;;;;;;5027498;28;20051;-73
2022/03/15 01:50:29;;;;;;;10.48;5.13;;;;;;;;;;5022598;28;20041;-74
2022/03/15 01:52:55;;;;;;;6.97;5.10;;;;;;;;;;5033972;28;20111;-74
2022/03/15 01:55:21;;;;;;;9.18;5.50;;;;;;;;;;5044248;28;20504;-74
2022/03/15 01:57:47;;;;;;;6.68;5.13;;;;;;;;;;5044150;28;20028;-74
2022/03/15 02:00:15;;;;;;;6.72;5.25;;;;;;;;;;5044162;28;20025;-74
2022/03/15 02:02:41;;;;;;;7.90;5.03;;;;;;;;;;5044624;28;20017;-74
2022/03/15 02:05:07;;;;;;;6.00;5.00;;;;;;;;;;5044034;28;20029;-74
2022/03/15 02:07:33;;;;;;;7.82;5.40;;;;;;;;;;5045025;28;20669;-73
2022/03/15 02:09:59;;;;;;;6.35;4.88;;;;;;;;;;5043998;28;20029;-74
2022/03/15 02:12:29;;;;;;;8.15;5.30;;;;;;;;;;5043837;28;20053;-74
2022/03/15 02:15:01;;;;;;;6.90;5.07;;;;;;;;;;5045278;28;20025;-73
2022/03/15 02:17:27;;;;;;;7.88;5.25;;;;;;;;;;5045138;28;20032;-75
2022/03/15 02:19:53;;;;;;;8.52;5.70;;;;;;;;;;5043943;28;20043;-74
2022/03/15 02:22:20;;;;;;;6.22;5.03;;;;;;;;;;5044756;28;20025;-74
2022/03/15 02:24:46;;;;;;;5.95;5.00;;;;;;;;;;5044008;28;20017;-73
2022/03/15 02:27:13;;;;;;;6.68;5.20;;;;;;;;;;5042305;28;20495;-75
2022/03/15 02:29:39;;;;;;;6.95;5.28;;;;;;;;;;5031906;28;20060;-74
2022/03/15 02:32:05;;;;;;;5.65;4.93;;;;;;;;;;5042939;28;20114;-74
2022/03/15 02:34:31;;;;;;;6.00;5.13;;;;;;;;;;5044281;28;20047;-74
2022/03/15 02:36:57;;;;;;;8.13;5.63;;;;;;;;;;5044650;28;20036;-73
2022/03/15 02:39:24;;;;;;;6.18;4.63;;;;;;;;;;5045137;28;20017;-73
2022/03/15 02:41:50;;;;;;;7.07;4.97;;;;;;;;;;5044547;28;20024;-73
2022/03/15 02:44:16;;;;;;;6.30;4.95;;;;;;;;;;5042856;28;20056;-74
2022/03/15 02:46:43;;;;;;;6.38;4.50;;;;;;;;;;5044062;28;20017;-74
2022/03/15 02:49:09;;;;;;;5.38;4.88;;;;;;;;;;5044537;28;20025;-77
2022/03/15 02:51:35;;;;;;;6.40;4.97;;;;;;;;;;5044777;28;20040;-73
2022/03/15 02:54:05;;;;;;;5.85;4.35;;;;;;;;;;5043131;28;20588;-73
2022/03/15 02:56:36;;;;;;;7.05;5.00;;;;;;;;;;5044269;28;20487;-73
2022/03/15 02:59:03;;;;;;;7.43;4.57;;;;;;;;;;5044534;28;20021;-75
2022/03/15 03:01:29;;;;;;;6.18;4.53;;;;;;;;;;5044205;28;20025;-74
2022/03/15 03:03:55;;;;;;;6.40;4.20;;;;;;;;;;5044339;28;20029;-74
2022/03/15 03:06:21;;;;;;;4.78;4.20;;;;;;;;;;5044084;28;20029;-73
2022/03/15 03:08:47;;;;;;;5.78;3.97;;;;;;;;;;5041845;28;20029;-74
2022/03/15 03:11:13;;;;;;;4.20;3.80;;;;;;;;;;5044298;28;20091;-75
2022/03/15 03:13:41;;;;;;;5.88;4.82;;;;;;;;;;5044073;28;20045;-75
2022/03/15 03:16:07;;;;;;;6.53;4.05;;;;;;;;;;5044270;28;20040;-73
2022/03/15 03:18:34;;;;;;;4.85;3.92;;;;;;;;;;5042592;28;20036;-73
2022/03/15 03:21:04;;;;;;;4.70;3.90;;;;;;;;;;5043927;28;20110;-73
2022/03/15 03:23:31;;;;;;;7.40;4.13;;;;;;;;;;5042305;28;20374;-73
2022/03/15 03:25:58;;;;;;;6.00;4.57;;;;;;;;;;5043221;28;20527;-73
2022/03/15 03:28:25;;;;;;;5.10;4.43;;;;;;;;;;5044257;28;20025;-73
2022/03/15 03:30:51;;;;;;;5.47;3.92;;;;;;;;;;5043910;28;20080;-74
2022/03/15 03:33:22;;;;;;;4.72;4.22;;;;;;;;;;5044339;28;20036;-73
2022/03/15 03:35:51;;;;;;;6.78;4.75;;;;;;;;;;5037823;28;20032;-73
2022/03/15 03:38:18;;;;;;;5.15;3.78;;;;;;;;;;5024745;28;20021;-74
2022/03/15 03:40:44;;;;;;;4.93;3.63;;;;;;;;;;5024006;28;20045;-73
2022/03/15 03:43:10;;;;;;;4.20;3.80;;;;;;;;;;5041647;28;20090;-73
2022/03/15 03:45:36;;;;;;;5.57;3.83;;;;;;;;;;5042758;28;20035;-73
2022/03/15 03:48:04;;;;;;;4.40;3.60;;;;;;;;;;5044194;28;20851;-73
2022/03/15 03:50:30;;;;;;;4.70;3.75;;;;;;;;;;5044274;28;20493;-73
2022/03/15 03:52:57;;;;;;;5.57;3.33;;;;;;;;;;5043926;28;20037;-74
2022/03/15 03:55:23;;;;;;;4.70;3.50;;;;;;;;;;5043784;28;20465;-73
2022/03/15 03:57:49;;;;;;;4.25;3.35;;;;;;;;;;5042326;28;20037;-73
2022/03/15 04:00:16;;;;;;;3.63;3.17;;;;;;;;;;5044024;28;20528;-73
2022/03/15 04:02:42;;;;;;;4.63;3.55;;;;;;;;;;5041145;28;20033;-74
2022/03/15 04:05:09;;;;;;;5.65;3.30;;;;;;;;;;5040853;28;20481;-74
2022/03/15 04:07:35;;;;;;;4.10;3.38;;;;;;;;;;5040149;28;20036;-74
2022/03/15 04:10:06;;;;;;;5.30;3.40;;;;;;;;;;5041417;28;20029;-74
2022/03/15 04:12:34;;;;;;;4.47;2.90;;;;;;;;;;5041367;28;20041;-73
2022/03/15 04:15:00;;;;;;;7.13;4.35;;;;;;;;;;5041016;28;20113;-73
2022/03/15 04:17:26;;;;;;;3.90;3.05;;;;;;;;;;5039604;28;20079;-73
2022/03/15 04:19:53;;;;;;;5.35;3.55;;;;;;;;;;5043283;28;20025;-73
2022/03/15 04:22:19;;;;;;;3.17;2.55;;;;;;;;;;5026837;28;20277;-73
2022/03/15 04:24:46;;;;;;;4.80;3.55;;;;;;;;;;5024642;28;20017;-74
2022/03/15 04:27:12;;;;;;;4.18;3.45;;;;;;;;;;5025189;28;20044;-73
2022/03/15 04:29:38;;;;;;;3.72;3.17;;;;;;;;;;5023524;28;20087;-74
2022/03/15 04:32:04;;;;;;;3.58;3.00;;;;;;;;;;5024801;28;20029;-75
2022/03/15 04:34:31;;;;;;;3.30;2.70;;;;;;;;;;5024800;28;20075;-74
2022/03/15 04:37:00;;;;;;;4.53;2.90;;;;;;;;;;5023599;28;20225;-73
2022/03/15 04:39:26;;;;;;;5.78;2.78;;;;;;;;;;5025027;28;20025;-73
2022/03/15 04:41:53;;;;;;;3.47;2.85;;;;;;;;;;5023376;28;20029;-74
2022/03/15 04:44:20;;;;;;;3.30;2.60;;;;;;;;;;5025986;28;20029;-73
2022/03/15 04:46:46;;;;;;;3.85;2.25;;;;;;;;;;5043938;28;20506;-74
2022/03/15 04:49:13;;;;;;;2.85;2.28;;;;;;;;;;5042060;28;20028;-76
2022/03/15 04:51:39;;;;;;;4.68;2.92;;;;;;;;;;5040617;28;20041;-73
2022/03/15 04:54:06;;;;;;;4.38;2.53;;;;;;;;;;5041995;28;20085;-74
2022/03/15 04:56:32;;;;;;;3.53;2.33;;;;;;;;;;5042221;28;20036;-74
2022/03/15 04:58:58;;;;;;;3.00;2.20;;;;;;;;;;5042726;28;20029;-76
2022/03/15 05:01:24;;;;;;;4.10;2.47;;;;;;;;;;5041722;28;20040;-73
2022/03/15 05:03:51;;;;;;;7.05;3.33;;;;;;;;;;5041976;28;20096;-73
2022/03/15 05:06:17;;;;;;;5.75;2.28;;;;;;;;;;5040402;28;20029;-73
2022/03/15 05:08:43;;;;;;;3.47;2.25;;;;;;;;;;5042079;28;20021;-75
2022/03/15 05:11:09;;;;;;;3.47;2.25;;;;;;;;;;5041929;28;20123;-73
2022/03/15 05:13:38;;;;;;;2.53;2.33;;;;;;;;;;5040920;28;20056;-73
2022/03/15 05:16:05;;;;;;;4.18;2.75;;;;;;;;;;5041851;28;20120;-74
2022/03/15 05:18:31;;;;;;;3.53;2.60;;;;;;;;;;5041664;28;20500;-73
2022/03/15 05:20:57;;;;;;;3.67;2.90;;;;;;;;;;5038437;28;20043;-73
2022/03/15 05:23:23;;;;;;;3.03;2.72;;;;;;;;;;5040480;28;20498;-77
2022/03/15 05:25:49;;;;;;;4.63;3.10;;;;;;;;;;5041172;28;20618;-74
2022/03/15 05:28:16;;;;;;;4.00;3.00;;;;;;;;;;5041912;28;20071;-73
2022/03/15 05:30:42;;;;;;;5.15;3.13;;;;;;;;;;5040586;28;20036;-77
2022/03/15 05:33:08;;;;;;;4.05;3.38;;;;;;;;;;5041433;28;20033;-74
2022/03/15 05:35:34;;;;;;;6.00;3.92;;;;;;;;;;5039787;28;20465;-75
2022/03/15 05:38:00;;;;;;;5.68;4.00;;;;;;;;;;5041080;28;20064;-73
2022/03/15 05:40:26;;;;;;;6.30;4.00;;;;;;;;;;5041342;28;20028;-74
2022/03/15 05:42:53;;;;;;;5.35;4.30;;;;;;;;;;5041524;28;20829;-73
2022/03/15 05:45:19;;;;;;;7.43;4.53;;;;;;;;;;5040816;28;20393;-74
2022/03/15 05:47:45;;;;;;;5.53;4.57;;;;;;;;;;5026312;28;20104;-78
2022/03/15 05:50:11;;;;;;;5.43;4.28;;;;;;;;;;5032353;28;20594;-74
2022/03/15 05:52:37;;;;;;;5.57;4.30;;;;;;;;;;5041400;28;20181;-74
2022/03/15 05:55:04;;;;;;;6.32;4.57;;;;;;;;;;5041012;28;20788;-73
2022/03/15 05:57:30;;;;;;;4.53;3.78;;;;;;;;;;5041264;28;20100;-75
2022/03/15 05:59:56;;;;;;;6.10;3.90;;;;;;;;;;5041044;28;20034;-77
2022/03/15 06:02:22;;;;;;;4.28;3.45;;;;;;;;;;5040734;28;20715;-77
2022/03/15 06:04:48;;;;;;;3.95;3.55;;;;;;;;;;5039618;28;20029;-76
2022/03/15 06:07:14;;;;;;;4.28;3.60;;;;;;;;;;5041149;28;20029;-74
2022/03/15 06:09:40;;;;;;;6.47;3.80;;;;;;;;;;5040729;28;20021;-73
2022/03/15 06:12:07;;;;;;;7.82;5.03;;;;;;;;;;5040756;28;20073;-73
2022/03/15 06:14:33;;;;;;;7.85;5.55;;;;;;;;;;5039321;28;20025;-73
2022/03/15 06:16:59;;;;;;;8.73;5.20;;;;;;;;;;5040555;28;20032;-75
2022/03/15 06:19:25;;;;;;;12.48;6.13;;;;;;;;;;5041137;28;20045;-74
2022/03/15 06:21:51;;;;;;;7.53;5.45;;;;;;;;;;5038858;28;20025;-74
2022/03/15 06:24:18;;;;;;;6.82;4.63;;;;;;;;;;5040171;28;20032;-74
2022/03/15 06:26:45;;;;;;;7.53;4.88;;;;;;;;;;5039296;28;20028;-73
2022/03/15 06:29:11;;;;;;;5.88;4.95;;;;;;;;;;5040765;28;20452;-74
2022/03/15 06:31:38;;;;;;;7.50;4.95;;;;;;;;;;5036757;28;20068;-74
2022/03/15 06:34:04;;;;;;;7.30;5.47;;;;;;;;;;5040768;28;20407;-73
2022/03/15 06:36:31;;;;;;;8.32;5.85;;;;;;;;;;5039963;28;20029;-73
2022/03/15 06:38:57;;;;;;;7.60;5.15;;;;;;;;;;5038904;28;20021;-72
2022/03/15 06:41:23;;;;;;;6.40;5.15;;;;;;;;;;5040210;28;20029;-73
2022/03/15 06:43:49;;;;;;;8.25;4.80;;;;;;;;;;5039898;28;20047;-73
2022/03/15 06:46:16;;;;;;;5.75;4.93;;;;;;;;;;5039775;28;20028;-74
2022/03/15 06:48:42;;;;;;;7.30;5.10;;;;;;;;;;5038199;28;20043;-73
2022/03/15 06:51:08;;;;;;;5.55;4.90;;;;;;;;;;5039571;28;20037;-74
2022/03/15 06:53:34;;;;;;;4.78;4.15;;;;;;;;;;5039669;28;20021;-72
2022/03/15 06:56:00;;;;;;;7.65;4.43;;;;;;;;;;5039987;28;20554;-73
2022/03/15 06:58:26;;;;;;;6.15;4.65;;;;;;;;;;5039838;28;20025;-73
2022/03/15 07:00:55;;;;;;;6.68;4.57;;;;;;;;;;5039159;28;20024;-73
2022/03/15 07:03:21;;;;;;;7.13;5.40;;;;;;;;;;5038703;28;20025;-73
2022/03/15 07:05:47;;;;;;;5.88;4.88;;;;;;;;;;5039048;28;20051;-73
2022/03/15 07:08:13;;;;;;;6.55;5.28;;;;;;;;;;5040245;28;20036;-72
2022/03/15 07:10:39;;;;;;;6.70;5.32;;;;;;;;;;5038342;28;20045;-73
2022/03/15 07:13:05;;;;;;;7.90;5.32;;;;;;;;;;5037454;28;20056;-74
2022/03/15 07:15:32;;;;;;;6.55;5.57;;;;;;;;;;5039466;28;20032;-73
2022/03/15 07:17:59;;;;;;;7.07;5.63;;;;;;;;;;5039607;28;20075;-73
2022/03/15 07:20:26;;;;;;;6.35;5.28;;;;;;;;;;5038256;28;20501;-73
2022/03/15 07:22:52;;;;;;;6.30;5.00;;;;;;;;;;5037632;28;20473;-73
2022/03/15 07:25:20;;;;;;;5.80;4.70;;;;;;;;;;5038962;28;20071;-73
2022/03/15 07:27:46;;;;;;;7.40;4.97;;;;;;;;;;5039922;28;20025;-73
2022/03/15 07:30:13;;;;;;;6.90;5.28;;;;;;;;;;5036944;28;20509;-73
2022/03/15 07:32:39;;;;;;;6.25;4.60;;;;;;;;;;5038476;28;20086;-73
2022/03/15 07:35:05;;;;;;;7.80;5.55;;;;;;;;;;5039329;28;20033;-73
2022/03/15 07:37:32;;;;;;;7.10;5.15;;;;;;;;;;5039183;28;20029;-74
2022/03/15 07:39:58;;;;;;;7.20;5.28;;;;;;;;;;5039289;28;20033;-73
2022/03/15 07:42:25;;;;;;;8.40;5.85;;;;;;;;;;5039097;28;20116;-73
2022/03/15 07:44:51;;;;;;;6.80;5.72;;;;;;;;;;5036443;28;20027;-73
2022/03/15 07:47:17;;;;;;;9.27;5.40;;;;;;;;;;5039274;28;20041;-74
2022/03/15 07:49:44;;;;;;;5.85;4.20;;;;;;;;;;5038562;28;20489;-73
2022/03/15 07:52:13;;;;;;;7.95;4.68;;;;;;;;;;5039185;28;20033;-73
2022/03/15 07:54:39;;;;;;;6.95;6.22;;;;;;;;;;5040872;28;20095;-73
2022/03/15 07:57:05;;;;;;;7.47;6.18;;;;;;;;;;5043248;28;20593;-73
2022/03/15 07:59:31;;;;;;;7.97;6.40;;;;;;;;;;5040852;28;20597;-73
2022/03/15 08:01:57;;;;;;;9.35;6.20;;;;;;;;;;5042064;28;20040;-73
2022/03/15 08:04:24;;;;;;;8.57;7.07;;;;;;;;;;5029014;28;20021;-74
2022/03/15 08:06:50;;;;;;;8.55;6.57;;;;;;;;;;5022657;28;20037;-76
2022/03/15 08:09:16;;;;;;;8.75;6.63;;;;;;;;;;5023328;28;20028;-73
2022/03/15 08:11:45;;;;;;;9.68;7.57;;;;;;;;;;5022527;28;20041;-77
2022/03/15 08:14:12;;;;;;;9.98;6.82;;;;;;;;;;5021289;28;20087;-74
2022/03/15 08:16:38;;;;;;;10.50;7.10;;;;;;;;;;5021211;28;20025;-76
2022/03/15 08:19:04;;;;;;;9.43;5.70;;;;;;;;;;5032223;28;20029;-73
2022/03/15 08:21:31;;;;;;;14.73;9.02;;;;;;;;;;5042772;28;20073;-75
2022/03/15 08:23:57;;;;;;;8.73;7.22;;;;;;;;;;5042814;28;20017;-75
2022/03/15 08:26:24;;;;;;;10.55;7.82;;;;;;;;;;5040368;28;20522;-75
2022/03/15 08:28:50;;;;;;;11.52;8.38;;;;;;;;;;5039334;28;20066;-74
2022/03/15 08:31:17;;;;;;;9.60;7.47;;;;;;;;;;5040822;28;20132;-76
2022/03/15 08:33:44;;;;;;;9.48;7.18;;;;;;;;;;5037595;28;20083;-73
2022/03/15 08:36:11;;;;;;;8.82;7.25;;;;;;;;;;5038278;28;20039;-75
2022/03/15 08:38:37;;;;;;;7.85;6.47;;;;;;;;;;5040823;28;20099;-75
2022/03/15 08:41:04;;;;;;;6.75;5.88;;;;;;;;;;5040554;28;20033;-74
2022/03/15 08:43:30;;;;;;;10.63;7.30;;;;;;;;;;5040492;28;20025;-74
2022/03/15 08:45:57;;;;;;;8.20;6.72;;;;;;;;;;5039079;28;20028;-74
2022/03/15 08:48:23;;;;;;;10.30;6.70;;;;;;;;;;5037930;28;20102;-76
2022/03/15 08:50:49;;;;;;;7.90;6.25;;;;;;;;;;5039118;28;20064;-79
2022/03/15 08:53:15;;;;;;;10.13;6.68;;;;;;;;;;5040442;28;20043;-74
2022/03/15 08:55:42;;;;;;;8.05;7.03;;;;;;;;;;5039426;28;20021;-73
2022/03/15 08:58:08;;;;;;;9.15;6.43;;;;;;;;;;5039438;28;20033;-74
2022/03/15 09:00:34;;;;;;;7.68;6.07;;;;;;;;;;5038790;28;20025;-74
2022/03/15 09:03:00;;;;;;;8.52;6.63;;;;;;;;;;5039301;28;20037;-74
2022/03/15 09:05:27;;;;;;;9.88;6.38;;;;;;;;;;5038496;28;20108;-74
2022/03/15 09:07:53;;;;;;;8.80;6.50;;;;;;;;;;5035526;28;20063;-75
2022/03/15 09:10:22;;;;;;;8.20;6.90;;;;;;;;;;5038575;28;20029;-74
2022/03/15 09:12:49;;;;;;;9.40;6.88;;;;;;;;;;5036512;28;20698;-74
2022/03/15 09:15:15;;;;;;;11.20;7.28;;;;;;;;;;5034617;28;20025;-74
2022/03/15 09:17:41;;;;;;;9.52;7.18;;;;;;;;;;5040631;28;20137;-74
2022/03/15 09:20:08;;;;;;;8.88;6.75;;;;;;;;;;5039945;28;20662;-74
2022/03/15 09:22:35;;;;;;;8.75;6.70;;;;;;;;;;5038241;28;20075;-74
2022/03/15 09:25:01;;;;;;;9.23;6.38;;;;;;;;;;5040519;28;20131;-74
2022/03/15 09:27:27;;;;;;;9.38;5.53;;;;;;;;;;5039910;28;20024;-74
2022/03/15 09:29:54;;;;;;;9.52;5.60;;;;;;;;;;5040706;28;20052;-74
2022/03/15 09:32:20;;;;;;;8.55;5.45;;;;;;;;;;5040372;28;20115;-74
2022/03/15 09:34:47;;;;;;;7.93;5.53;;;;;;;;;;5038602;28;20102;-74
2022/03/15 09:37:13;;;;;;;10.23;5.63;;;;;;;;;;5040349;28;20072;-74
2022/03/15 09:39:39;;;;;;;6.07;5.25;;;;;;;;;;5040776;28;20040;-74
2022/03/15 09:42:07;;;;;;;12.45;5.85;;;;;;;;;;5040154;28;20029;-74
2022/03/15 09:44:35;;;;;;;7.75;5.55;;;;;;;;;;5040917;28;20082;-75
2022/03/15 09:47:02;;;;;;;8.10;5.68;;;;;;;;;;5038963;28;20592;-74
2022/03/15 09:49:29;;;;;;;6.90;5.18;;;;;;;;;;5040384;28;20025;-73
2022/03/15 09:51:56;;;;;;;7.38;5.25;;;;;;;;;;5036440;28;20588;-74
2022/03/15 09:54:24;;;;;;;8.80;6.03;;;;;;;;;;5039551;28;20120;-74
2022/03/15 09:56:50;;;;;;;7.97;5.72;;;;;;;;;;5019008;28;20052;-74
2022/03/15 09:59:19;;;;;;;5.97;5.22;;;;;;;;;;5021019;28;20027;-74
2022/03/15 10:01:46;;;;;;;6.65;5.32;;;;;;;;;;5038587;28;20029;-75
2022/03/15 10:04:12;;;;;;;7.30;5.20;;;;;;;;;;5039506;28;20017;-74
2022/03/15 10:06:39;;;;;;;7.30;5.07;;;;;;;;;;5040265;28;20033;-74
2022/03/15 10:09:06;;;;;;;7.75;5.90;;;;;;;;;;5039869;28;20029;-74
2022/03/15 10:11:32;;;;;;;7.85;5.35;;;;;;;;;;5038178;28;20044;-74
2022/03/15 10:13:59;;;;;;;8.13;5.78;;;;;;;;;;5040029;28;20036;-75
2022/03/15 10:16:34;;;;;;;7.18;5.22;;;;;;;;;;5039433;28;20098;-74
2022/03/15 10:19:01;;;;;;;5.18;4.43;;;;;;;;;;5039199;28;20098;-74
2022/03/15 10:21:39;;;;;;;5.28;4.50;;;;;;;;;;5038573;28;20060;-74
2022/03/15 10:24:09;;;;;;;5.50;4.38;;;;;;;;;;5036063;28;20779;-74
2022/03/15 10:26:40;;;;;;;6.93;5.28;;;;;;;;;;5039325;28;20496;-73
2022/03/15 10:29:11;;;;;;;9.10;5.00;;;;;;;;;;5038808;28;20040;-74
2022/03/15 10:31:38;;;;;;;5.90;5.07;;;;;;;;;;5037482;28;20040;-74
2022/03/15 10:34:07;;;;;;;6.45;5.03;;;;;;;;;;5039801;28;20373;-74
2022/03/15 10:36:37;;;;;;;8.13;5.30;;;;;;;;;;5040097;28;20516;-74
2022/03/15 10:39:04;;;;;;;7.75;5.47;;;;;;;;;;5022238;28;20033;-73
2022/03/15 10:41:30;;;;;;;6.82;5.57;;;;;;;;;;5037803;28;20024;-74
2022/03/15 10:44:01;;;;;;;6.72;5.38;;;;;;;;;;5039748;28;20809;-74
2022/03/15 10:46:27;;;;;;;8.50;4.68;;;;;;;;;;5039494;28;20708;-74
2022/03/15 10:49:00;;;;;;;5.80;4.57;;;;;;;;;;5037826;28;20564;-74
2022/03/15 10:51:26;;;;;;;7.50;5.30;;;;;;;;;;5038187;28;20048;-73
2022/03/15 10:54:00;;;;;;;5.95;4.95;;;;;;;;;;5039563;28;20520;-74
2022/03/15 10:56:26;;;;;;;9.38;5.55;;;;;;;;;;5033668;28;20108;-73
2022/03/15 10:58:53;;;;;;;6.75;5.65;;;;;;;;;;5016012;28;20075;-74
2022/03/15 11:01:20;;;;;;;7.70;6.03;;;;;;;;;;5030995;28;20071;-74
2022/03/15 11:03:53;;;;;;;6.50;5.50;;;;;;;;;;5039256;28;20033;-74
2022/03/15 11:06:39;;;;;;;8.50;5.05;;;;;;;;;;5039588;28;20067;-74
2022/03/15 11:09:24;;;;;;;8.52;5.55;;;;;;;;;;5039233;28;20033;-74
2022/03/15 11:12:01;;;;;;;9.30;6.30;;;;;;;;;;5037691;28;20048;-74
2022/03/15 11:14:32;;;;;;;8.02;5.70;;;;;;;;;;5039377;28;20053;-74
2022/03/15 11:16:59;;;;;;;8.88;5.45;;;;;;;;;;5039050;28;20033;-74
2022/03/15 11:19:29;;;;;;;9.63;6.28;;;;;;;;;;5037583;28;20021;-74
2022/03/15 11:21:57;;;;;;;7.60;6.40;;;;;;;;;;5039176;28;20051;-74
2022/03/15 11:24:26;;;;;;;6.65;5.97;;;;;;;;;;5039483;28;20049;-72
2022/03/15 11:26:52;;;;;;;6.63;5.70;;;;;;;;;;5040910;28;20104;-74
2022/03/15 11:29:25;;;;;;;8.15;5.70;;;;;;;;;;5041900;28;20028;-74
2022/03/15 11:31:52;;;;;;;15.00;5.65;;;;;;;;;;5043771;28;20052;-73
2022/03/15 11:34:22;;;;;;;6.65;5.90;;;;;;;;;;5046016;28;20017;-73
2022/03/15 11:36:49;;;;;;;8.25;6.45;;;;;;;;;;5045214;28;20552;-73
2022/03/15 11:39:15;;;;;;;7.00;5.70;;;;;;;;;;5044994;28;20041;-74
2022/03/15 11:41:43;;;;;;;5.40;4.90;;;;;;;;;;5044121;28;20123;-73
2022/03/15 11:44:14;;;;;;;5.85;5.20;;;;;;;;;;5043122;28;20029;-72
2022/03/15 11:46:45;;;;;;;6.35;5.47;;;;;;;;;;5044797;28;20029;-73
2022/03/15 11:49:17;;;;;;;6.65;5.00;;;;;;;;;;5043760;28;20043;-73
2022/03/15 11:51:55;;;;;;;7.22;4.88;;;;;;;;;;5043229;28;20045;-73
2022/03/15 11:54:34;;;;;;;6.50;5.30;;;;;;;;;;5051183;28;20025;-74
2022/03/15 11:57:03;;;;;;;5.65;5.07;;;;;;;;;;5035114;28;20045;-73
2022/03/15 11:59:45;;;;;;;7.95;4.55;;;;;;;;;;5043838;28;20287;-73
2022/03/15 12:02:11;;;;;;;8.30;5.20;;;;;;;;;;5038078;28;20491;-73
2022/03/15 12:04:43;;;;;;;5.88;5.28;;;;;;;;;;5044215;28;20033;-73
2022/03/15 12:07:11;;;;;;;6.15;4.63;;;;;;;;;;5042713;28;20727;-73
2022/03/15 12:09:45;;;;;;;7.13;4.50;;;;;;;;;;5043611;28;20096;-73
2022/03/15 12:12:11;;;;;;;11.27;4.35;;;;;;;;;;5043092;28;20143;-73
2022/03/15 12:14:41;;;;;;;4.72;4.15;;;;;;;;;;5042727;28;20021;-73
2022/03/15 12:17:08;;;;;;;5.15;3.55;;;;;;;;;;5044258;28;20021;-73
2022/03/15 12:19:43;;;;;;;3.95;3.55;;;;;;;;;;5044141;28;20401;-73
2022/03/15 12:22:11;;;;;;;5.80;3.83;;;;;;;;;;5032485;28;20026;-73
2022/03/15 12:24:42;;;;;;;12.32;4.05;;;;;;;;;;5032034;28;20103;-73
2022/03/15 12:27:18;;;;;;;5.50;3.80;;;;;;;;;;5039536;28;20033;-73
2022/03/15 12:29:54;;;;;;;5.78;4.00;;;;;;;;;;5022996;28;20385;-73
2022/03/15 12:32:22;;;;;;;9.05;4.75;;;;;;;;;;5024614;28;20038;-73
2022/03/15 12:34:49;;;;;;;4.82;3.90;;;;;;;;;;5024465;28;20022;-73
2022/03/15 12:37:16;;;;;;;6.55;3.60;;;;;;;;;;5022441;28;20053;-73
2022/03/15 12:39:53;;;;;;;4.43;3.80;;;;;;;;;;5037804;28;20049;-73
2022/03/15 12:42:22;;;;;;;6.28;4.30;;;;;;;;;;5043114;28;20063;-73
2022/03/15 12:44:49;;;;;;;5.30;3.70;;;;;;;;;;5044156;28;20188;-73
2022/03/15 12:47:18;;;;;;;4.68;3.42;;;;;;;;;;5043900;28;20036;-73
2022/03/15 12:50:07;;;;;;;4.32;3.20;;;;;;;;;;5041530;28;20163;-73
2022/03/15 12:52:53;;;;;;;4.32;3.22;;;;;;;;;;5035935;28;20069;-74
2022/03/15 12:55:27;;;;;;;5.07;3.35;;;;;;;;;;5043821;28;20025;-73
2022/03/15 12:58:03;;;;;;;6.10;4.35;;;;;;;;;;5043296;28;20021;-73
2022/03/15 13:00:35;;;;;;;6.50;4.40;;;;;;;;;;5042785;28;20607;-73
2022/03/15 13:03:02;;;;;;;5.05;4.43;;;;;;;;;;5043803;28;20036;-73
2022/03/15 13:05:29;;;;;;;4.97;3.50;;;;;;;;;;5042394;28;20625;-73
2022/03/15 13:08:00;;;;;;;5.90;4.13;;;;;;;;;;5043525;28;20032;-73
2022/03/15 13:10:38;;;;;;;5.65;4.88;;;;;;;;;;5043840;28;20601;-73
2022/03/15 13:13:08;;;;;;;5.80;4.47;;;;;;;;;;5043203;28;20528;-73
2022/03/15 13:15:35;;;;;;;4.82;4.03;;;;;;;;;;5041921;28;20037;-73
2022/03/15 13:18:01;;;;;;;5.97;3.83;;;;;;;;;;5043246;28;20051;-73
2022/03/15 13:20:35;;;;;;;6.65;4.38;;;;;;;;;;5043331;28;20074;-73
2022/03/15 13:23:05;;;;;;;5.93;4.30;;;;;;;;;;5034021;28;20482;-73
2022/03/15 13:25:38;;;;;;;5.95;4.30;;;;;;;;;;5019277;28;20053;-73
2022/03/15 13:28:23;;;;;;;5.60;3.45;;;;;;;;;;5027500;28;20029;-73
2022/03/15 13:30:53;;;;;;;4.43;3.58;;;;;;;;;;5042986;28;20048;-72
2022/03/15 13:33:35;;;;;;;6.70;4.28;;;;;;;;;;5043021;28;20021;-73
2022/03/15 13:36:06;;;;;;;5.38;4.15;;;;;;;;;;5043088;28;20036;-73
2022/03/15 13:38:33;;;;;;;12.32;3.13;;;;;;;;;;5041757;28;20032;-73
2022/03/15 13:41:00;;;;;;;5.55;3.53;;;;;;;;;;5042671;28;20103;-73
2022/03/15 13:43:28;;;;;;;6.25;3.38;;;;;;;;;;5042906;28;20021;-73
2022/03/15 13:45:54;;;;;;;2.97;2.30;;;;;;;;;;5041607;28;20025;-72
2022/03/15 13:48:27;;;;;;;8.13;2.95;;;;;;;;;;5042604;28;20107;-73
2022/03/15 13:51:13;;;;;;;5.40;2.60;;;;;;;;;;5042054;28;20367;-73
2022/03/15 13:53:40;;;;;;;3.53;2.55;;;;;;;;;;5042315;28;20032;-74
2022/03/15 13:56:17;;;;;;;6.30;2.85;;;;;;;;;;5042647;28;20535;-74
2022/03/15 13:58:48;;;;;;;3.92;2.75;;;;;;;;;;5040830;28;20588;-73
2022/03/15 14:01:16;;;;;;;3.50;2.40;;;;;;;;;;5042042;28;20033;-74
2022/03/15 14:03:42;;;;;;;4.70;3.00;;;;;;;;;;5042153;28;20021;-74
2022/03/15 14:06:10;;;;;;;3.88;2.60;;;;;;;;;;5041926;28;20032;-74
2022/03/15 14:08:43;;;;;;;4.95;2.67;;;;;;;;;;5042649;28;20029;-73
2022/03/15 14:11:10;;;;;;;6.40;2.80;;;;;;;;;;5042350;28;20112;-73
2022/03/15 14:13:36;;;;;;;3.83;2.70;;;;;;;;;;5038932;28;20473;-74
2022/03/15 14:16:11;;;;;;;4.70;2.60;;;;;;;;;;5041974;28;20025;-73
2022/03/15 14:18:38;;;;;;;5.57;2.60;;;;;;;;;;5041555;28;20108;-73
2022/03/15 14:21:21;;;;;;;3.17;2.10;;;;;;;;;;5040990;28;20834;-74
2022/03/15 14:23:54;;;;;;;6.43;3.33;;;;;;;;;;5037238;28;20124;-74
2022/03/15 14:26:32;;;;;;;4.78;2.65;;;;;;;;;;5041923;28;20423;-73
2022/03/15 14:29:00;;;;;;;7.47;2.65;;;;;;;;;;5042141;28;20051;-74
2022/03/15 14:31:27;;;;;;;7.13;2.60;;;;;;;;;;5030923;28;20313;-74
2022/03/15 14:34:00;;;;;;;4.65;2.88;;;;;;;;;;5030756;28;20060;-74
2022/03/15 14:36:34;;;;;;;4.50;3.00;;;;;;;;;;5040262;28;20503;-73
2022/03/15 14:39:14;;;;;;;10.63;3.28;;;;;;;;;;5040219;28;20115;-74
2022/03/15 14:41:42;;;;;;;5.55;3.38;;;;;;;;;;5042020;28;20087;-74
2022/03/15 14:44:09;;;;;;;7.85;3.35;;;;;;;;;;5041272;28;20021;-75
2022/03/15 14:46:38;;;;;;;8.50;3.35;;;;;;;;;;5027793;28;20074;-74